Time;durP1;ratioP1;P1;durP2;ratioP2;P2;SDS_P1;SDS_P2;PMS_P1;PMS_P2;Temp;Humidity;BMP_temperature;BMP_pressure;BME280_temperature;BME280_humidity;BME280_pressure;Samples;Min_cycle;Max_cycle;Signal;HPM_P1;HPM_P2
2021/06/20 00:00:36;;;;;;;55.65;36.10;;;;;;;18.85;100.00;100480.94;5064135;28;20025;-63
2021/06/20 00:03:02;;;;;;;55.35;36.58;;;;;;;18.89;100.00;100477.28;5062198;28;20476;-63
2021/06/20 00:05:32;;;;;;;56.05;36.08;;;;;;;18.79;100.00;100477.56;5066651;28;20021;-63
2021/06/20 00:08:02;;;;;;;56.45;35.90;;;;;;;18.63;100.00;100495.09;5064343;28;20107;-63
2021/06/20 00:10:29;;;;;;;56.20;35.03;;;;;;;18.51;100.00;100498.16;5066281;28;20033;-63
2021/06/20 00:12:57;;;;;;;58.15;36.53;;;;;;;18.53;100.00;100494.53;5063476;28;20028;-63
2021/06/20 00:15:23;;;;;;;60.42;37.33;;;;;;;18.42;100.00;100494.00;5066941;28;20399;-63
2021/06/20 00:17:50;;;;;;;58.35;36.67;;;;;;;18.53;100.00;100490.97;5059263;28;20511;-63
2021/06/20 00:20:17;;;;;;;59.40;37.65;;;;;;;18.62;100.00;100490.66;5066176;28;20031;-63
2021/06/20 00:22:43;;;;;;;55.80;36.78;;;;;;;18.53;100.00;100489.16;5064144;28;20035;-63
2021/06/20 00:25:09;;;;;;;57.50;36.65;;;;;;;18.60;100.00;100487.16;5063829;28;20028;-63
2021/06/20 00:27:35;;;;;;;57.50;36.72;;;;;;;18.64;100.00;100491.50;5065081;28;20020;-63
2021/06/20 00:30:03;;;;;;;57.05;36.63;;;;;;;18.66;100.00;100512.84;5064223;28;20035;-63
2021/06/20 00:32:28;;;;;;;56.67;36.70;;;;;;;18.65;100.00;100495.91;5066058;28;20119;-64
2021/06/20 00:34:54;;;;;;;56.78;36.22;;;;;;;18.63;100.00;100511.16;5063101;28;20512;-63
2021/06/20 00:37:19;;;;;;;57.85;36.35;;;;;;;18.50;100.00;100526.75;5059123;28;20116;-64
2021/06/20 00:39:45;;;;;;;60.08;37.47;;;;;;;18.48;100.00;100515.22;5065908;28;20150;-65
2021/06/20 00:42:10;;;;;;;57.20;36.50;;;;;;;18.56;100.00;100496.22;5064073;28;20383;-64
2021/06/20 00:44:46;;;;;;;56.35;36.83;;;;;;;18.57;100.00;100520.25;5064968;28;20029;-66
2021/06/20 00:47:12;;;;;;;57.75;36.60;;;;;;;18.60;100.00;100519.28;5063729;28;20033;-65
2021/06/20 00:49:37;;;;;;;58.40;37.97;;;;;;;18.60;100.00;100504.09;5064748;28;20025;-65
2021/06/20 00:52:03;;;;;;;59.45;37.42;;;;;;;18.66;100.00;100505.69;5065335;28;20028;-64
2021/06/20 00:54:29;;;;;;;57.13;37.50;;;;;;;18.53;100.00;100532.00;5063305;28;20162;-64
2021/06/20 00:56:54;;;;;;;59.92;38.17;;;;;;;18.47;100.00;100542.91;5065604;28;20021;-64
2021/06/20 00:59:20;;;;;;;63.00;39.65;;;;;;;18.41;100.00;100537.78;5062919;28;20537;-67
2021/06/20 01:01:45;;;;;;;62.83;39.00;;;;;;;18.34;100.00;100538.91;5065695;28;20020;-67
2021/06/20 01:04:10;;;;;;;62.80;38.67;;;;;;;18.40;100.00;100544.91;5063773;28;20091;-66
2021/06/20 01:06:37;;;;;;;62.92;38.63;;;;;;;18.43;100.00;100552.81;5064175;28;20032;-64
2021/06/20 01:09:03;;;;;;;59.88;38.22;;;;;;;18.40;100.00;100547.56;5064777;28;20032;-70
2021/06/20 01:11:29;;;;;;;60.63;37.97;;;;;;;18.56;100.00;100545.28;5063150;28;20414;-70
2021/06/20 01:13:54;;;;;;;61.00;38.13;;;;;;;18.68;100.00;100532.41;5065672;28;20105;-68
2021/06/20 01:16:20;;;;;;;57.28;37.17;;;;;;;18.78;100.00;100529.34;5058443;28;20055;-71
2021/06/20 01:18:45;;;;;;;56.95;37.45;;;;;;;18.81;100.00;100523.91;5065330;28;20371;-71
2021/06/20 01:21:11;;;;;;;58.13;38.75;;;;;;;18.63;100.00;100524.53;5063744;28;20107;-70
2021/06/20 01:23:37;;;;;;;59.83;37.65;;;;;;;18.63;100.00;100504.00;5063798;28;20039;-70
2021/06/20 01:26:02;;;;;;;58.65;37.75;;;;;;;18.70;100.00;100488.59;5064584;28;20028;-70
2021/06/20 01:28:30;;;;;;;56.28;37.08;;;;;;;18.77;100.00;100463.34;5062531;28;20387;-69
2021/06/20 01:30:58;;;;;;;59.45;38.90;;;;;;;18.74;100.00;100471.50;5065023;28;20487;-71
2021/06/20 01:33:25;;;;;;;57.42;37.55;;;;;;;18.71;100.00;100490.34;5061876;28;20490;-66
2021/06/20 01:35:50;;;;;;;58.60;37.85;;;;;;;18.68;100.00;100474.38;5058028;28;20472;-70
2021/06/20 01:38:16;;;;;;;56.67;37.55;;;;;;;18.71;100.00;100473.41;5064738;28;20024;-72
2021/06/20 01:40:42;;;;;;;58.05;36.75;;;;;;;18.74;100.00;100466.16;5063054;28;20064;-71
2021/06/20 01:43:08;;;;;;;60.65;38.40;;;;;;;18.80;100.00;100473.97;5063198;28;20029;-71
2021/06/20 01:45:33;;;;;;;58.70;37.47;;;;;;;18.79;100.00;100482.03;5064070;28;20066;-71
2021/06/20 01:47:59;;;;;;;63.58;39.85;;;;;;;18.68;100.00;100455.63;5062632;28;20078;-70
2021/06/20 01:50:26;;;;;;;58.80;37.67;;;;;;;18.71;100.00;100460.91;5064992;28;20353;-72
2021/06/20 01:53:05;;;;;;;61.20;40.33;;;;;;;18.63;100.00;100471.00;5057629;28;20028;-65
2021/06/20 01:55:31;;;;;;;62.20;39.03;;;;;;;18.63;100.00;100476.34;5059574;28;20510;-71
2021/06/20 01:57:57;;;;;;;60.58;38.50;;;;;;;18.66;100.00;100467.34;5064674;28;20043;-64
2021/06/20 02:00:22;;;;;;;63.75;39.88;;;;;;;18.66;100.00;100456.66;5061457;28;20021;-64
2021/06/20 02:02:47;;;;;;;62.00;39.60;;;;;;;18.69;100.00;100481.50;5064689;28;20025;-64
2021/06/20 02:05:13;;;;;;;59.78;39.50;;;;;;;18.61;100.00;100508.53;5062505;28;20103;-64
2021/06/20 02:07:39;;;;;;;60.05;39.60;;;;;;;18.45;100.00;100521.56;5063186;28;20098;-64
2021/06/20 02:10:10;;;;;;;63.00;41.15;;;;;;;18.31;100.00;100534.50;5062991;28;20021;-64
2021/06/20 02:12:37;;;;;;;63.67;41.35;;;;;;;18.23;100.00;100539.22;5062753;28;20440;-63
2021/06/20 02:15:04;;;;;;;70.00;42.03;;;;;;;18.18;100.00;100543.88;5063508;28;20037;-63
2021/06/20 02:17:32;;;;;;;68.97;42.83;;;;;;;18.14;100.00;100537.72;5061690;28;20036;-64
2021/06/20 02:20:04;;;;;;;72.43;44.58;;;;;;;18.13;100.00;100536.00;5064409;28;20025;-64
2021/06/20 02:22:30;;;;;;;73.78;43.72;;;;;;;18.11;100.00;100533.38;5061889;28;20024;-63
2021/06/20 02:24:56;;;;;;;75.88;45.03;;;;;;;18.08;100.00;100528.09;5064316;28;20082;-64
2021/06/20 02:27:22;;;;;;;78.55;45.65;;;;;;;18.03;100.00;100527.38;5061028;28;20025;-64
2021/06/20 02:29:49;;;;;;;76.38;44.05;;;;;;;18.08;100.00;100532.56;5064159;28;20473;-64
2021/06/20 02:32:15;;;;;;;75.47;44.97;;;;;;;18.00;100.00;100540.84;5061491;28;20119;-63
2021/06/20 02:34:42;;;;;;;73.50;43.55;;;;;;;18.02;100.00;100541.66;5063083;28;20468;-63
2021/06/20 02:37:09;;;;;;;72.90;45.92;;;;;;;17.78;100.00;100538.81;5062823;28;20025;-64
2021/06/20 02:39:35;;;;;;;69.53;45.40;;;;;;;17.60;100.00;100545.59;5062072;28;20024;-63
2021/06/20 02:42:01;;;;;;;72.07;44.75;;;;;;;17.42;100.00;100559.47;5063667;28;20115;-64
2021/06/20 02:44:26;;;;;;;82.38;47.72;;;;;;;17.30;100.00;100542.00;5060803;28;20063;-66
2021/06/20 02:46:53;;;;;;;81.88;48.30;;;;;;;17.30;100.00;100542.00;5064135;28;20036;-64
2021/06/20 02:49:19;;;;;;;85.30;50.50;;;;;;;17.13;100.00;100546.94;5061200;28;20387;-68
2021/06/20 02:51:44;;;;;;;88.60;49.65;;;;;;;17.07;100.00;100545.31;5063169;28;20025;-71
2021/06/20 02:54:11;;;;;;;90.82;49.97;;;;;;;17.04;100.00;100550.72;5062119;28;20024;-64
2021/06/20 02:56:37;;;;;;;90.53;50.50;;;;;;;17.01;100.00;100551.69;5062127;28;20025;-63
2021/06/20 02:59:02;;;;;;;92.90;50.70;;;;;;;16.99;100.00;100553.50;5063147;28;20086;-71
2021/06/20 03:01:27;;;;;;;93.15;51.53;;;;;;;16.94;100.00;100557.25;5060955;28;20029;-69
2021/06/20 03:03:53;;;;;;;99.60;52.95;;;;;;;16.92;100.00;100559.06;5064215;28;20028;-70
2021/06/20 03:06:18;;;;;;;94.40;50.25;;;;;;;16.93;100.00;100558.16;5061196;28;20055;-69
2021/06/20 03:08:43;;;;;;;94.68;51.45;;;;;;;16.88;100.00;100568.94;5063067;28;20024;-69
2021/06/20 03:11:09;;;;;;;92.97;51.22;;;;;;;16.87;100.00;100572.50;5062513;28;20459;-69
2021/06/20 03:13:34;;;;;;;92.80;49.72;;;;;;;16.89;100.00;100573.34;5061374;28;20465;-67
2021/06/20 03:15:59;;;;;;;87.93;50.05;;;;;;;16.88;100.00;100575.16;5063736;28;20454;-66
2021/06/20 03:18:25;;;;;;;83.28;47.97;;;;;;;16.90;100.00;100572.44;5060506;28;20017;-71
2021/06/20 03:20:50;;;;;;;85.97;48.08;;;;;;;16.82;100.00;100566.38;5065418;28;20020;-70
2021/06/20 03:23:15;;;;;;;85.70;48.45;;;;;;;16.76;100.00;100574.56;5065220;28;20029;-71
2021/06/20 03:25:41;;;;;;;82.63;47.30;;;;;;;16.77;100.00;100569.19;5066559;28;20029;-63
2021/06/20 03:28:07;;;;;;;82.63;48.20;;;;;;;16.68;100.00;100570.28;5066116;28;20036;-63
2021/06/20 03:30:34;;;;;;;82.70;47.22;;;;;;;16.69;100.00;100568.53;5065123;28;20116;-63
2021/06/20 03:33:00;;;;;;;86.32;48.47;;;;;;;16.64;100.00;100576.63;5067295;28;20375;-63
2021/06/20 03:35:25;;;;;;;83.85;48.58;;;;;;;16.61;100.00;100573.16;5062799;28;20033;-64
2021/06/20 03:37:50;;;;;;;88.03;49.05;;;;;;;16.64;100.00;100568.59;5067481;28;20033;-63
2021/06/20 03:40:16;;;;;;;86.97;47.70;;;;;;;16.68;100.00;100566.75;5063479;28;20119;-63
2021/06/20 03:42:42;;;;;;;87.65;47.97;;;;;;;16.68;100.00;100567.63;5066018;28;20061;-64
2021/06/20 03:45:08;;;;;;;86.35;48.58;;;;;;;16.71;100.00;100559.53;5066040;28;20103;-64
2021/06/20 03:47:34;;;;;;;86.68;47.50;;;;;;;16.66;100.00;100560.56;5064793;28;20021;-63
2021/06/20 03:50:00;;;;;;;90.15;49.60;;;;;;;16.67;100.00;100565.88;5066980;28;20025;-64
2021/06/20 03:52:25;;;;;;;90.47;49.65;;;;;;;16.66;100.00;100566.78;5063992;28;20029;-64
2021/06/20 03:54:51;;;;;;;88.68;49.15;;;;;;;16.68;100.00;100574.75;5066915;28;20088;-64
2021/06/20 03:57:19;;;;;;;94.05;49.67;;;;;;;16.73;100.00;100584.41;5064782;28;20021;-64
2021/06/20 03:59:44;;;;;;;93.40;49.10;;;;;;;16.75;100.00;100589.72;5066274;28;20388;-64
2021/06/20 04:02:09;;;;;;;89.25;49.08;;;;;;;16.77;100.00;100597.66;5065199;28;20028;-64
2021/06/20 04:04:37;;;;;;;95.50;49.45;;;;;;;16.73;100.00;100602.19;5065151;28;20175;-64
2021/06/20 04:07:03;;;;;;;90.75;48.67;;;;;;;16.82;100.00;100607.31;5066252;28;20390;-64
2021/06/20 04:09:28;;;;;;;90.60;48.97;;;;;;;16.82;100.00;100614.44;5063521;28;20029;-64
2021/06/20 04:11:53;;;;;;;93.43;48.20;;;;;;;16.87;100.00;100613.44;5066999;28;20035;-63
2021/06/20 04:14:19;;;;;;;87.43;47.88;;;;;;;16.93;100.00;100615.06;5063693;28;20043;-64
2021/06/20 04:16:44;;;;;;;86.53;46.92;;;;;;;16.98;100.00;100620.28;5066130;28;20029;-64
2021/06/20 04:19:09;;;;;;;92.00;48.30;;;;;;;16.91;100.00;100622.25;5064281;28;20032;-64
2021/06/20 04:21:35;;;;;;;91.03;48.03;;;;;;;16.90;100.00;100631.19;5064619;28;20048;-63
2021/06/20 04:24:00;;;;;;;92.50;48.30;;;;;;;16.92;100.00;100624.03;5066247;28;20463;-64
2021/06/20 04:26:25;;;;;;;87.70;47.63;;;;;;;16.92;100.00;100626.69;5063395;28;20065;-64
2021/06/20 04:28:51;;;;;;;94.82;48.85;;;;;;;16.89;100.00;100621.41;5066388;28;20078;-64
2021/06/20 04:31:17;;;;;;;89.07;48.35;;;;;;;16.91;100.00;100627.59;5063732;28;20399;-64
2021/06/20 04:33:42;;;;;;;93.13;48.45;;;;;;;16.91;100.00;100622.25;5065158;28;20071;-64
2021/06/20 04:36:08;;;;;;;90.40;48.05;;;;;;;16.97;100.00;100619.44;5065008;28;20371;-64
2021/06/20 04:38:33;;;;;;;91.85;47.25;;;;;;;17.05;100.00;100617.44;5063970;28;20029;-63
2021/06/20 04:41:04;;;;;;;98.40;50.35;;;;;;;16.98;100.00;100610.50;5066379;28;20422;-63
2021/06/20 04:43:58;;;;;;;94.90;49.60;;;;;;;17.01;100.00;100617.56;5063294;28;20487;-63
2021/06/20 04:46:36;;;;;;;97.18;48.88;;;;;;;16.98;100.00;100623.84;5059133;28;20024;-63
2021/06/20 04:49:08;;;;;;;97.45;48.38;;;;;;;17.06;100.00;100624.53;5060758;28;20116;-63
2021/06/20 04:51:39;;;;;;;90.40;47.00;;;;;;;17.15;100.00;100625.19;5065291;28;20025;-63
2021/06/20 04:54:05;;;;;;;92.60;46.65;;;;;;;17.17;100.00;100628.69;5063831;28;20048;-63
2021/06/20 04:56:30;;;;;;;85.95;45.25;;;;;;;17.23;100.00;100633.91;5065632;28;20111;-63
2021/06/20 04:58:56;;;;;;;90.03;45.97;;;;;;;17.22;100.00;100640.16;5062929;28;20021;-63
2021/06/20 05:01:22;;;;;;;83.07;45.78;;;;;;;17.24;100.00;100640.97;5066038;28;20221;-63
2021/06/20 05:03:48;;;;;;;81.63;45.22;;;;;;;17.32;100.00;100639.00;5063416;28;20065;-63
2021/06/20 05:06:14;;;;;;;76.78;42.88;;;;;;;17.45;100.00;100646.69;5064808;28;20411;-63
2021/06/20 05:08:39;;;;;;;76.63;41.55;;;;;;;17.47;100.00;100632.34;5064345;28;20028;-63
2021/06/20 05:11:06;;;;;;;68.97;39.30;;;;;;;17.53;100.00;100639.31;5063398;28;20037;-62
2021/06/20 05:13:31;;;;;;;69.05;40.53;;;;;;;17.58;100.00;100640.06;5054606;28;20025;-63
2021/06/20 05:15:57;;;;;;;66.05;37.92;;;;;;;17.67;100.00;100633.59;5055598;28;20055;-63
2021/06/20 05:18:22;;;;;;;63.70;37.45;;;;;;;17.68;100.00;100640.66;5056179;28;20503;-63
2021/06/20 05:20:47;;;;;;;63.05;38.05;;;;;;;17.61;100.00;100645.34;5055690;28;20035;-64
2021/06/20 05:23:13;;;;;;;60.45;36.60;;;;;;;17.69;100.00;100651.34;5055749;28;20109;-64
2021/06/20 05:25:38;;;;;;;59.92;35.65;;;;;;;17.66;100.00;100645.19;5053167;28;20020;-64
2021/06/20 05:28:04;;;;;;;59.03;36.58;;;;;;;17.74;100.00;100657.44;5054303;28;20028;-64
2021/06/20 05:30:30;;;;;;;54.25;33.33;;;;;;;17.77;100.00;100651.13;5054661;28;20017;-64
2021/06/20 05:32:55;;;;;;;51.97;31.73;;;;;;;17.76;100.00;100644.00;5053624;28;20464;-64
2021/06/20 05:35:21;;;;;;;50.72;29.98;;;;;;;17.72;100.00;100653.03;5055102;28;20031;-64
2021/06/20 05:37:46;;;;;;;50.53;29.92;;;;;;;17.56;100.00;100656.16;5055481;28;20489;-65
2021/06/20 05:40:13;;;;;;;52.75;31.30;;;;;;;17.62;100.00;100656.88;5052221;28;20017;-65
2021/06/20 05:42:38;;;;;;;49.33;29.98;;;;;;;17.57;100.00;100657.03;5054026;28;20028;-64
2021/06/20 05:45:04;;;;;;;50.97;32.03;;;;;;;17.52;100.00;100664.31;5052324;28;20031;-65
2021/06/20 05:47:30;;;;;;;51.45;31.25;;;;;;;17.59;100.00;100668.53;5051534;28;20021;-65
2021/06/20 05:49:55;;;;;;;51.25;30.83;;;;;;;17.60;100.00;100679.22;5055951;28;20044;-63
2021/06/20 05:52:20;;;;;;;52.03;31.52;;;;;;;17.54;100.00;100682.03;5056479;28;20025;-65
2021/06/20 05:54:50;;;;;;;51.47;31.30;;;;;;;17.57;100.00;100676.59;5054676;28;20528;-64
2021/06/20 05:57:20;;;;;;;48.20;30.00;;;;;;;17.52;100.00;100680.34;5056448;28;20009;-67
2021/06/20 05:59:46;;;;;;;51.75;30.95;;;;;;;17.52;100.00;100678.53;5055360;28;20116;-63
2021/06/20 06:02:11;;;;;;;48.72;29.90;;;;;;;17.61;100.00;100677.41;5064424;28;20032;-66
2021/06/20 06:04:38;;;;;;;50.33;31.90;;;;;;;17.59;100.00;100673.88;5061663;28;20436;-65
2021/06/20 06:07:03;;;;;;;50.55;31.63;;;;;;;17.63;100.00;100677.34;5064254;28;20025;-64
2021/06/20 06:09:29;;;;;;;50.63;31.65;;;;;;;17.74;100.00;100693.97;5061432;28;20081;-63
2021/06/20 06:11:54;;;;;;;48.67;31.30;;;;;;;17.71;100.00;100680.72;5062438;28;20028;-64
2021/06/20 06:14:20;;;;;;;50.90;31.73;;;;;;;17.82;100.00;100681.25;5060531;28;20056;-63
2021/06/20 06:16:45;;;;;;;52.47;32.47;;;;;;;17.92;100.00;100681.91;5062829;28;20112;-63
2021/06/20 06:19:11;;;;;;;52.75;33.25;;;;;;;18.16;100.00;100695.47;5063809;28;20107;-64
2021/06/20 06:21:36;;;;;;;50.90;31.90;;;;;;;18.27;100.00;100704.06;5061467;28;20024;-63
2021/06/20 06:24:03;;;;;;;46.97;29.35;;;;;;;18.26;100.00;100696.97;5064586;28;20035;-64
2021/06/20 06:26:29;;;;;;;47.65;30.95;;;;;;;18.25;100.00;100709.47;5061415;28;20115;-64
2021/06/20 06:28:54;;;;;;;47.72;29.60;;;;;;;18.21;100.00;100717.63;5062735;28;20119;-63
2021/06/20 06:31:19;;;;;;;46.78;29.77;;;;;;;18.19;100.00;100722.13;5062460;28;20093;-64
2021/06/20 06:33:45;;;;;;;44.13;27.08;;;;;;;18.23;100.00;100726.47;5062703;28;20053;-63
2021/06/20 06:36:10;;;;;;;42.17;26.58;;;;;;;18.38;100.00;100723.38;5063406;28;20036;-64
2021/06/20 06:38:35;;;;;;;38.25;23.52;;;;;;;18.52;97.97;100722.06;5061234;28;20027;-63
2021/06/20 06:41:01;;;;;;;36.58;23.02;;;;;;;18.60;94.88;100731.63;5064299;28;20024;-64
2021/06/20 06:43:26;;;;;;;37.47;22.58;;;;;;;18.69;92.81;100727.78;5061457;28;20027;-65
2021/06/20 06:45:51;;;;;;;35.35;21.20;;;;;;;18.70;89.53;100742.94;5063247;28;20071;-63
2021/06/20 06:48:17;;;;;;;35.13;21.35;;;;;;;18.61;91.76;100735.16;5058609;28;20468;-63
2021/06/20 06:50:44;;;;;;;34.28;20.48;;;;;;;18.66;88.59;100746.63;5062863;28;20029;-63
2021/06/20 06:53:09;;;;;;;35.20;21.17;;;;;;;18.66;86.78;100741.25;5062025;28;20025;-67
2021/06/20 06:55:35;;;;;;;37.95;22.98;;;;;;;18.36;90.89;100716.31;5067140;28;20043;-67
2021/06/20 06:58:01;;;;;;;35.90;22.08;;;;;;;18.26;92.99;100723.72;5067493;28;20462;-69
2021/06/20 07:00:27;;;;;;;36.22;22.40;;;;;;;18.17;93.76;100722.19;5070791;28;20476;-64
2021/06/20 07:02:54;;;;;;;35.80;22.30;;;;;;;18.23;95.19;100719.34;5066848;28;20044;-67
2021/06/20 07:05:19;;;;;;;36.08;21.73;;;;;;;18.29;94.56;100713.81;5069476;28;20357;-73
2021/06/20 07:07:45;;;;;;;35.97;21.25;;;;;;;18.33;91.61;100713.72;5069264;28;20066;-69
2021/06/20 07:10:11;;;;;;;36.13;21.67;;;;;;;18.42;92.15;100718.78;5064673;28;20032;-64
2021/06/20 07:12:36;;;;;;;34.95;20.75;;;;;;;18.42;88.37;100719.69;5069314;28;20107;-63
2021/06/20 07:15:04;;;;;;;36.25;21.92;;;;;;;18.60;88.33;100722.72;5066152;28;20040;-62
2021/06/20 07:17:31;;;;;;;34.72;20.40;;;;;;;18.83;84.91;100735.38;5069284;28;20025;-64
2021/06/20 07:19:56;;;;;;;35.08;19.83;;;;;;;18.99;84.30;100722.41;5066150;28;20032;-64
2021/06/20 07:22:22;;;;;;;33.38;19.92;;;;;;;19.09;83.49;100720.28;5069473;28;20017;-63
2021/06/20 07:24:47;;;;;;;33.15;20.80;;;;;;;19.03;82.80;100715.13;5067577;28;20428;-63
2021/06/20 07:27:13;;;;;;;34.60;21.52;;;;;;;18.92;83.03;100727.09;5070882;28;20032;-64
2021/06/20 07:29:40;;;;;;;32.35;19.27;;;;;;;19.07;83.35;100739.09;5067280;28;20028;-62
2021/06/20 07:32:06;;;;;;;31.90;19.40;;;;;;;19.25;81.89;100747.44;5070377;28;20104;-64
2021/06/20 07:34:32;;;;;;;32.22;18.42;;;;;;;19.46;81.38;100740.50;5068635;28;20167;-64
2021/06/20 07:36:57;;;;;;;30.73;17.42;;;;;;;19.49;80.45;100738.56;5065333;28;20036;-63
2021/06/20 07:39:22;;;;;;;31.92;19.27;;;;;;;19.47;81.92;100745.81;5066929;28;20052;-63
2021/06/20 07:41:48;;;;;;;32.80;19.10;;;;;;;19.48;82.08;100752.03;5067004;28;20077;-70
2021/06/20 07:44:13;;;;;;;34.83;20.25;;;;;;;19.46;81.03;100759.28;5066263;28;20031;-62
2021/06/20 07:46:39;;;;;;;33.08;19.60;;;;;;;19.37;81.11;100755.09;5066103;28;20458;-64
2021/06/20 07:49:05;;;;;;;33.55;19.42;;;;;;;19.35;79.61;100759.59;5066119;28;20387;-63
2021/06/20 07:51:30;;;;;;;33.00;19.52;;;;;;;19.60;80.47;100758.78;5063592;28;20101;-63
2021/06/20 07:53:55;;;;;;;34.40;19.70;;;;;;;19.63;78.15;100764.03;5065905;28;20466;-63
2021/06/20 07:56:21;;;;;;;31.83;18.58;;;;;;;19.56;78.79;100758.03;5061719;28;20025;-63
2021/06/20 07:58:46;;;;;;;31.80;19.08;;;;;;;19.56;78.28;100757.16;5064428;28;20025;-63
2021/06/20 08:01:11;;;;;;;31.50;17.42;;;;;;;19.41;76.44;100769.25;5064119;28;20116;-63
2021/06/20 08:03:37;;;;;;;30.20;17.85;;;;;;;19.28;79.06;100764.31;5063237;28;20112;-63
2021/06/20 08:06:02;;;;;;;30.17;16.73;;;;;;;19.20;78.28;100755.66;5063178;28;20049;-63
2021/06/20 08:08:27;;;;;;;30.17;16.80;;;;;;;19.32;77.37;100763.28;5058208;28;20044;-63
2021/06/20 08:10:53;;;;;;;29.58;16.48;;;;;;;19.52;77.49;100757.22;5060804;28;20024;-63
2021/06/20 08:13:18;;;;;;;29.95;16.10;;;;;;;19.60;76.63;100765.03;5060255;28;20017;-63
2021/06/20 08:15:44;;;;;;;31.08;17.48;;;;;;;19.66;75.88;100763.94;5061804;28;20051;-63
2021/06/20 08:18:10;;;;;;;29.05;15.60;;;;;;;19.85;74.70;100759.72;5063342;28;20465;-63
2021/06/20 08:20:35;;;;;;;30.27;16.52;;;;;;;19.98;75.37;100756.56;5066765;28;20032;-63
2021/06/20 08:23:01;;;;;;;26.98;14.07;;;;;;;19.99;73.08;100763.69;5063730;28;20349;-63
2021/06/20 08:25:27;;;;;;;25.77;13.20;;;;;;;19.93;71.18;100772.84;5065700;28;20143;-64
2021/06/20 08:27:52;;;;;;;27.02;12.63;;;;;;;20.07;71.26;100772.34;5064588;28;20024;-63
2021/06/20 08:30:18;;;;;;;24.65;13.13;;;;;;;20.43;70.65;100781.78;5064507;28;20025;-63
2021/06/20 08:32:44;;;;;;;26.23;13.77;;;;;;;20.53;68.93;100793.91;5065485;28;20032;-64
2021/06/20 08:35:10;;;;;;;26.17;13.48;;;;;;;20.54;70.19;100788.47;5063327;28;20025;-63
2021/06/20 08:37:36;;;;;;;26.73;13.70;;;;;;;20.65;68.97;100797.94;5060778;28;20482;-66
2021/06/20 08:40:03;;;;;;;25.92;13.80;;;;;;;20.50;69.27;100788.66;5062107;28;20033;-72
2021/06/20 08:42:29;;;;;;;26.85;14.38;;;;;;;20.69;68.26;100810.34;5060588;28;20560;-67
2021/06/20 08:44:55;;;;;;;26.02;13.57;;;;;;;20.58;68.90;100804.50;5059695;28;20028;-61
2021/06/20 08:47:20;;;;;;;25.25;13.15;;;;;;;20.76;68.71;100809.19;5058933;28;20044;-64
2021/06/20 08:49:46;;;;;;;24.05;12.82;;;;;;;20.87;68.10;100819.53;5056571;28;20121;-65
2021/06/20 08:52:13;;;;;;;24.77;12.68;;;;;;;21.12;68.55;100810.50;5061299;28;20429;-69
2021/06/20 08:55:00;;;;;;;24.65;13.23;;;;;;;21.17;66.48;100793.25;5059486;28;20995;-65
2021/06/20 08:57:28;;;;;;;23.92;12.32;;;;;;;21.26;66.86;100789.31;5061741;28;20052;-68
2021/06/20 08:59:53;;;;;;;24.02;12.55;;;;;;;21.33;64.26;100796.16;5061459;28;20033;-64
2021/06/20 09:02:24;;;;;;;26.17;13.82;;;;;;;21.22;65.47;100783.16;5065695;28;20029;-64
2021/06/20 09:04:57;;;;;;;25.48;13.32;;;;;;;21.70;68.19;100794.66;5061242;28;20032;-64
2021/06/20 09:07:36;;;;;;;26.60;14.82;;;;;;;21.98;64.40;100788.06;5066064;28;20053;-64
2021/06/20 09:10:15;;;;;;;26.90;15.50;;;;;;;21.98;65.46;100795.28;5056682;28;20120;-64
2021/06/20 09:12:54;;;;;;;26.40;14.25;;;;;;;21.68;65.89;100796.53;5061772;28;20143;-64
2021/06/20 09:15:24;;;;;;;26.98;14.93;;;;;;;21.26;65.31;100778.56;5058306;28;20033;-64
2021/06/20 09:17:55;;;;;;;27.02;14.52;;;;;;;20.99;67.66;100780.53;5057966;28;20469;-64
2021/06/20 09:20:51;;;;;;;24.70;13.02;;;;;;;21.30;66.29;100772.09;5058176;28;20426;-64
2021/06/20 09:23:18;;;;;;;25.50;13.32;;;;;;;21.57;65.97;100783.53;5062813;28;20041;-64
2021/06/20 09:25:46;;;;;;;25.30;12.63;;;;;;;21.68;65.53;100783.09;5060356;28;20502;-64
2021/06/20 09:28:13;;;;;;;24.38;12.50;;;;;;;22.01;61.28;100792.44;5062424;28;20495;-65
2021/06/20 09:30:52;;;;;;;24.90;12.98;;;;;;;22.15;63.34;100791.81;5061122;28;20033;-65
2021/06/20 09:33:21;;;;;;;24.10;11.35;;;;;;;22.09;60.69;100792.97;5055691;28;20462;-66
2021/06/20 09:35:48;;;;;;;24.02;11.25;;;;;;;22.26;60.24;100794.91;5063032;28;20132;-65
2021/06/20 09:38:19;;;;;;;21.30;9.65;;;;;;;22.57;58.85;100793.53;5043844;28;20043;-65
2021/06/20 09:40:45;;;;;;;20.63;8.90;;;;;;;23.11;59.72;100775.69;5062942;28;20079;-73
2021/06/20 09:43:16;;;;;;;21.20;9.00;;;;;;;23.50;56.10;100784.56;5060609;28;20028;-73
2021/06/20 09:45:45;;;;;;;21.10;8.77;;;;;;;23.75;55.50;100786.91;5045388;28;20542;-73
2021/06/20 09:48:24;;;;;;;20.15;8.30;;;;;;;23.89;55.11;100779.94;5060728;28;20029;-71
2021/06/20 09:50:49;;;;;;;19.13;6.80;;;;;;;23.54;53.12;100799.66;5059708;28;20025;-69
2021/06/20 09:53:15;;;;;;;20.70;7.28;;;;;;;23.44;54.34;100788.44;5062403;28;20487;-72
2021/06/20 09:55:40;;;;;;;18.27;6.82;;;;;;;23.23;55.23;100787.69;5060765;28;20103;-66
2021/06/20 09:58:05;;;;;;;19.77;7.82;;;;;;;23.44;55.49;100792.97;5061226;28;20028;-72
2021/06/20 10:00:43;;;;;;;17.52;6.07;;;;;;;23.62;53.40;100791.16;5059712;28;20039;-72
2021/06/20 10:03:20;;;;;;;16.67;5.43;;;;;;;23.61;53.94;100787.59;5063371;28;20037;-66
2021/06/20 10:05:47;;;;;;;15.35;5.03;;;;;;;23.63;52.33;100799.16;5061844;28;20047;-64
2021/06/20 10:08:12;;;;;;;16.77;5.25;;;;;;;23.52;51.14;100801.56;5063928;28;20025;-64
2021/06/20 10:10:38;;;;;;;14.93;4.95;;;;;;;24.19;49.48;100813.41;5062603;28;20021;-65
2021/06/20 10:13:03;;;;;;;16.65;5.00;;;;;;;24.06;50.18;100811.41;5062815;28;20388;-65
2021/06/20 10:15:29;;;;;;;15.48;5.07;;;;;;;23.83;51.12;100797.28;5063535;28;20040;-65
2021/06/20 10:17:58;;;;;;;16.40;5.15;;;;;;;23.68;50.28;100801.66;5061511;28;20104;-64
2021/06/20 10:20:30;;;;;;;15.88;5.50;;;;;;;23.33;53.47;100807.88;5064762;28;20028;-64
2021/06/20 10:22:55;;;;;;;15.82;5.13;;;;;;;23.35;53.04;100804.22;5058366;28;20040;-64
2021/06/20 10:25:34;;;;;;;17.83;5.45;;;;;;;23.69;52.49;100797.97;5064490;28;20029;-65
2021/06/20 10:28:01;;;;;;;16.75;5.32;;;;;;;24.37;50.82;100800.72;5059184;28;20025;-64
2021/06/20 10:30:28;;;;;;;15.18;4.90;;;;;;;24.42;49.22;100807.72;5063577;28;20053;-64
2021/06/20 10:33:22;;;;;;;13.63;4.80;;;;;;;24.04;50.24;100811.50;5061323;28;20032;-64
2021/06/20 10:36:06;;;;;;;20.23;5.40;;;;;;;24.29;51.32;100815.59;5061030;28;20052;-64
2021/06/20 10:38:37;;;;;;;14.88;4.78;;;;;;;24.60;49.79;100805.88;5059883;28;20036;-64
2021/06/20 10:41:03;;;;;;;15.63;4.53;;;;;;;25.14;47.35;100806.44;5063265;28;20032;-64
2021/06/20 10:43:29;;;;;;;12.48;4.30;;;;;;;25.54;48.31;100814.06;5059707;28;20021;-65
2021/06/20 10:45:54;;;;;;;12.25;4.10;;;;;;;24.97;46.00;100815.47;5060889;28;20028;-64
2021/06/20 10:48:28;;;;;;;11.65;4.00;;;;;;;24.37;48.31;100816.94;5064224;28;20031;-65
2021/06/20 10:50:57;;;;;;;13.95;4.43;;;;;;;25.51;47.25;100808.84;5056943;28;20036;-65
2021/06/20 10:53:24;;;;;;;15.55;4.68;;;;;;;26.64;43.91;100808.31;5056873;28;20021;-65
2021/06/20 10:55:52;;;;;;;13.05;4.20;;;;;;;26.34;44.04;100798.41;5064146;28;20021;-65
2021/06/20 10:58:28;;;;;;;12.05;4.30;;;;;;;26.17;43.64;100793.19;5061187;28;20044;-72
2021/06/20 11:01:06;;;;;;;11.30;4.30;;;;;;;25.71;45.47;100791.44;5057015;28;20182;-75
2021/06/20 11:03:32;;;;;;;16.23;4.20;;;;;;;26.68;43.05;100788.19;5058675;28;20460;-65